Time;durP1;ratioP1;P1;durP2;ratioP2;P2;SDS_P1;SDS_P2;PMS_P1;PMS_P2;Temp;Humidity;BMP_temperature;BMP_pressure;BME280_temperature;BME280_humidity;BME280_pressure;Samples;Min_cycle;Max_cycle;Signal;HPM_P1;HPM_P2
2022/07/31 00:01:50;;;;;;;1.08;0.90;;;;;;;;;;5049193;28;20052;-58
2022/07/31 00:04:16;;;;;;;2.45;1.00;;;;;;;;;;5055446;28;20099;-57
2022/07/31 00:06:43;;;;;;;2.60;0.90;;;;;;;;;;5052557;28;20044;-58
2022/07/31 00:09:09;;;;;;;1.63;1.00;;;;;;;;;;5054038;28;20049;-58
2022/07/31 00:11:35;;;;;;;1.55;0.88;;;;;;;;;;5058943;28;20070;-58
2022/07/31 00:14:01;;;;;;;1.88;1.30;;;;;;;;;;5065241;28;20052;-58
2022/07/31 00:16:27;;;;;;;0.95;0.82;;;;;;;;;;5049079;28;20041;-58
2022/07/31 00:18:54;;;;;;;1.65;0.95;;;;;;;;;;5048384;28;20051;-58
2022/07/31 00:21:20;;;;;;;1.13;0.95;;;;;;;;;;5050336;28;20094;-58
2022/07/31 00:23:46;;;;;;;2.15;1.08;;;;;;;;;;5060473;28;20052;-58
2022/07/31 00:26:12;;;;;;;0.82;0.82;;;;;;;;;;5052322;28;20092;-58
2022/07/31 00:28:38;;;;;;;1.10;1.00;;;;;;;;;;5059755;28;20420;-58
2022/07/31 00:31:04;;;;;;;1.58;1.15;;;;;;;;;;5051566;28;20049;-59
2022/07/31 00:33:30;;;;;;;1.27;0.93;;;;;;;;;;5051056;28;20110;-58
2022/07/31 00:35:56;;;;;;;1.00;0.90;;;;;;;;;;5052592;28;20118;-58
2022/07/31 00:38:22;;;;;;;1.83;1.13;;;;;;;;;;5052125;28;20482;-58
2022/07/31 00:40:49;;;;;;;0.90;0.90;;;;;;;;;;5065388;28;20049;-59
2022/07/31 00:43:15;;;;;;;1.13;1.00;;;;;;;;;;5071973;28;20098;-59
2022/07/31 00:45:41;;;;;;;1.50;0.80;;;;;;;;;;5069875;28;20044;-59
2022/07/31 00:48:07;;;;;;;0.95;0.93;;;;;;;;;;5071250;28;20048;-59
2022/07/31 00:50:34;;;;;;;1.00;0.90;;;;;;;;;;5071614;28;20129;-58
2022/07/31 00:53:00;;;;;;;0.90;0.90;;;;;;;;;;5071758;28;20057;-58
2022/07/31 00:55:26;;;;;;;1.75;0.90;;;;;;;;;;5071094;28;20043;-58
2022/07/31 00:57:52;;;;;;;1.25;1.10;;;;;;;;;;5071906;28;20133;-58
2022/07/31 01:00:18;;;;;;;0.93;0.90;;;;;;;;;;5071015;28;20504;-58
2022/07/31 01:02:44;;;;;;;1.63;0.93;;;;;;;;;;5063767;28;20731;-58
2022/07/31 01:05:10;;;;;;;1.00;0.90;;;;;;;;;;5052207;28;20836;-58
2022/07/31 01:07:36;;;;;;;0.85;0.80;;;;;;;;;;5051335;28;20556;-59
2022/07/31 01:10:06;;;;;;;1.25;0.85;;;;;;;;;;5052122;28;20052;-58
2022/07/31 01:12:39;;;;;;;1.70;1.00;;;;;;;;;;5068487;28;20513;-58
2022/07/31 01:15:07;;;;;;;0.90;0.80;;;;;;;;;;5071358;28;20055;-58
2022/07/31 01:17:34;;;;;;;1.80;0.70;;;;;;;;;;5070173;28;20053;-59
2022/07/31 01:20:00;;;;;;;0.80;0.80;;;;;;;;;;5071937;28;20048;-58
2022/07/31 01:22:45;;;;;;;1.27;0.88;;;;;;;;;;5071343;28;20079;-58
2022/07/31 01:25:29;;;;;;;2.85;1.20;;;;;;;;;;5070222;28;20059;-58
2022/07/31 01:28:14;;;;;;;1.10;1.00;;;;;;;;;;5066231;28;20546;-59
2022/07/31 01:30:46;;;;;;;1.50;0.93;;;;;;;;;;5070445;28;20113;-59
2022/07/31 01:33:19;;;;;;;1.30;1.02;;;;;;;;;;5070251;28;20444;-58
2022/07/31 01:35:51;;;;;;;1.65;1.00;;;;;;;;;;5071130;28;20051;-58
2022/07/31 01:38:22;;;;;;;1.52;1.02;;;;;;;;;;5071553;28;20485;-58
2022/07/31 01:40:52;;;;;;;0.88;0.80;;;;;;;;;;5070802;28;20081;-58
2022/07/31 01:43:23;;;;;;;1.05;0.95;;;;;;;;;;5071372;28;20064;-59
2022/07/31 01:45:50;;;;;;;1.13;0.98;;;;;;;;;;5068255;28;20040;-58
2022/07/31 01:48:17;;;;;;;1.77;1.25;;;;;;;;;;5070452;28;20183;-58
2022/07/31 01:50:44;;;;;;;0.98;0.85;;;;;;;;;;5070477;28;20049;-58
2022/07/31 01:53:12;;;;;;;1.05;0.93;;;;;;;;;;5068622;28;20139;-58
2022/07/31 01:55:40;;;;;;;1.83;1.38;;;;;;;;;;5070387;28;20048;-58
2022/07/31 01:58:07;;;;;;;1.98;0.80;;;;;;;;;;5071010;28;20052;-58
2022/07/31 02:00:33;;;;;;;2.08;1.00;;;;;;;;;;5069212;28;20493;-58
2022/07/31 02:02:59;;;;;;;0.95;0.82;;;;;;;;;;5069141;28;20405;-58
2022/07/31 02:05:26;;;;;;;1.02;0.93;;;;;;;;;;5069914;28;20382;-58
2022/07/31 02:07:53;;;;;;;1.10;1.00;;;;;;;;;;5070108;28;20861;-58
2022/07/31 02:10:19;;;;;;;1.85;0.88;;;;;;;;;;5068954;28;20048;-58
2022/07/31 02:12:46;;;;;;;1.58;1.02;;;;;;;;;;5070297;28;20048;-58
2022/07/31 02:15:13;;;;;;;1.58;0.90;;;;;;;;;;5069631;28;20478;-58
2022/07/31 02:17:39;;;;;;;0.57;0.57;;;;;;;;;;5069119;28;20123;-58
2022/07/31 02:20:07;;;;;;;1.45;0.90;;;;;;;;;;5070751;28;20663;-58
2022/07/31 02:22:33;;;;;;;0.93;0.70;;;;;;;;;;5070163;28;20511;-57
2022/07/31 02:25:00;;;;;;;1.08;0.93;;;;;;;;;;5070714;28;20048;-58
2022/07/31 02:27:26;;;;;;;1.60;1.10;;;;;;;;;;5069889;28;20754;-58
2022/07/31 02:29:53;;;;;;;0.95;0.93;;;;;;;;;;5070138;28;20048;-58
2022/07/31 02:32:20;;;;;;;1.02;1.00;;;;;;;;;;5050196;28;20128;-58
2022/07/31 02:34:46;;;;;;;0.80;0.80;;;;;;;;;;5049809;28;20413;-58
2022/07/31 02:37:13;;;;;;;0.70;0.70;;;;;;;;;;5050312;28;20044;-58
2022/07/31 02:39:40;;;;;;;1.15;1.00;;;;;;;;;;5051623;28;20048;-58
2022/07/31 02:42:06;;;;;;;1.77;1.13;;;;;;;;;;5050073;28;20462;-58
2022/07/31 02:44:33;;;;;;;1.25;0.93;;;;;;;;;;5049541;28;20424;-58
2022/07/31 02:47:01;;;;;;;1.80;0.98;;;;;;;;;;5049222;28;20084;-58
2022/07/31 02:49:28;;;;;;;1.23;0.90;;;;;;;;;;5050362;28;20059;-58
2022/07/31 02:51:55;;;;;;;1.02;0.90;;;;;;;;;;5049846;28;20048;-58
2022/07/31 02:54:23;;;;;;;1.33;1.15;;;;;;;;;;5052121;28;20067;-58
2022/07/31 02:56:50;;;;;;;0.80;0.80;;;;;;;;;;5068920;28;20050;-58
2022/07/31 02:59:16;;;;;;;1.63;1.00;;;;;;;;;;5070280;28;20045;-58
2022/07/31 03:01:42;;;;;;;1.17;0.88;;;;;;;;;;5067988;28;20048;-57
2022/07/31 03:04:09;;;;;;;1.75;1.10;;;;;;;;;;5070169;28;20044;-58
2022/07/31 03:06:35;;;;;;;0.98;0.90;;;;;;;;;;5070005;28;20131;-58
2022/07/31 03:09:01;;;;;;;1.10;1.00;;;;;;;;;;5068455;28;20045;-58
2022/07/31 03:11:27;;;;;;;0.80;0.80;;;;;;;;;;5050745;28;20052;-58
2022/07/31 03:13:55;;;;;;;1.15;1.13;;;;;;;;;;5056239;28;20067;-58
2022/07/31 03:16:22;;;;;;;0.82;0.80;;;;;;;;;;5067916;28;20058;-58
2022/07/31 03:18:49;;;;;;;0.88;0.88;;;;;;;;;;5068754;28;20060;-58
2022/07/31 03:21:16;;;;;;;0.90;0.80;;;;;;;;;;5070074;28;20045;-58
2022/07/31 03:23:42;;;;;;;1.92;1.20;;;;;;;;;;5069655;28;20052;-57
2022/07/31 03:26:08;;;;;;;1.65;0.95;;;;;;;;;;5069698;28;20573;-58
2022/07/31 03:28:35;;;;;;;1.20;1.00;;;;;;;;;;5072374;28;20045;-58
2022/07/31 03:31:01;;;;;;;1.80;0.85;;;;;;;;;;5048346;28;20052;-58
2022/07/31 03:33:27;;;;;;;0.88;0.85;;;;;;;;;;5049174;28;20052;-58
2022/07/31 03:35:53;;;;;;;2.13;1.45;;;;;;;;;;5049397;28;20087;-58
2022/07/31 03:38:19;;;;;;;1.58;0.80;;;;;;;;;;5049684;28;20267;-58
2022/07/31 03:40:46;;;;;;;1.55;0.90;;;;;;;;;;5050564;28;20094;-58
2022/07/31 03:43:13;;;;;;;1.05;0.90;;;;;;;;;;5049509;28;20049;-58
2022/07/31 03:45:40;;;;;;;0.80;0.80;;;;;;;;;;5052992;28;20055;-58
2022/07/31 03:48:09;;;;;;;1.10;1.00;;;;;;;;;;5068288;28;20382;-58
2022/07/31 03:50:36;;;;;;;1.38;1.00;;;;;;;;;;5069683;28;20049;-58
2022/07/31 03:53:04;;;;;;;0.77;0.77;;;;;;;;;;5068723;28;20071;-58
2022/07/31 03:55:30;;;;;;;1.17;1.08;;;;;;;;;;5071039;28;20048;-58
2022/07/31 03:57:58;;;;;;;0.90;0.90;;;;;;;;;;5072822;28;20075;-58
2022/07/31 04:00:26;;;;;;;1.17;1.08;;;;;;;;;;5072388;28;20167;-58
2022/07/31 04:02:54;;;;;;;1.77;1.23;;;;;;;;;;5072111;28;20044;-58
2022/07/31 04:05:20;;;;;;;1.00;0.88;;;;;;;;;;5073245;28;20143;-58
2022/07/31 04:07:46;;;;;;;1.25;0.80;;;;;;;;;;5072717;28;20053;-58
2022/07/31 04:10:12;;;;;;;0.70;0.70;;;;;;;;;;5071623;28;20084;-58
2022/07/31 04:12:39;;;;;;;1.30;1.02;;;;;;;;;;5071948;28;20189;-58
2022/07/31 04:15:05;;;;;;;1.20;1.10;;;;;;;;;;5071008;28;20049;-58
2022/07/31 04:17:31;;;;;;;1.10;0.90;;;;;;;;;;5071590;28;20048;-58
2022/07/31 04:19:57;;;;;;;0.90;0.88;;;;;;;;;;5072567;28;20045;-59
2022/07/31 04:22:23;;;;;;;1.60;0.90;;;;;;;;;;5072956;28;20624;-58
2022/07/31 04:24:49;;;;;;;1.10;1.00;;;;;;;;;;5072275;28;20592;-58
2022/07/31 04:27:16;;;;;;;1.02;0.90;;;;;;;;;;5072342;28;20048;-58
2022/07/31 04:29:42;;;;;;;1.48;0.85;;;;;;;;;;5072933;28;20485;-58
2022/07/31 04:32:08;;;;;;;0.98;0.80;;;;;;;;;;5069743;28;20090;-58
2022/07/31 04:34:35;;;;;;;1.23;0.88;;;;;;;;;;5066327;28;20076;-58
2022/07/31 04:37:01;;;;;;;0.80;0.80;;;;;;;;;;5072163;28;20047;-58
2022/07/31 04:39:27;;;;;;;2.78;0.90;;;;;;;;;;5072733;28;20485;-58
2022/07/31 04:41:53;;;;;;;1.60;1.30;;;;;;;;;;5071612;28;20044;-58
2022/07/31 04:44:19;;;;;;;1.30;0.95;;;;;;;;;;5072373;28;20536;-58
2022/07/31 04:46:45;;;;;;;1.55;0.98;;;;;;;;;;5070336;28;20044;-58
2022/07/31 04:49:13;;;;;;;1.63;1.10;;;;;;;;;;5072206;28;20048;-58
2022/07/31 04:51:40;;;;;;;1.17;0.98;;;;;;;;;;5072660;28;20048;-58
2022/07/31 04:54:06;;;;;;;1.85;1.00;;;;;;;;;;5071953;28;20056;-58
2022/07/31 04:56:32;;;;;;;1.02;0.90;;;;;;;;;;5071230;28;20075;-58
2022/07/31 04:58:58;;;;;;;0.70;0.70;;;;;;;;;;5070113;28;20048;-58
2022/07/31 05:01:24;;;;;;;2.00;1.02;;;;;;;;;;5071190;28;20084;-58
2022/07/31 05:03:51;;;;;;;2.22;1.00;;;;;;;;;;5070909;28;20040;-58
2022/07/31 05:06:17;;;;;;;1.10;1.00;;;;;;;;;;5071417;28;20098;-58
2022/07/31 05:08:43;;;;;;;0.77;0.77;;;;;;;;;;5071974;28;20058;-58
2022/07/31 05:11:21;;;;;;;1.10;1.00;;;;;;;;;;5071309;28;20080;-58
2022/07/31 05:13:47;;;;;;;1.20;0.88;;;;;;;;;;5072062;28;20397;-58
2022/07/31 05:16:13;;;;;;;1.08;0.88;;;;;;;;;;5070339;28;20044;-58
2022/07/31 05:18:39;;;;;;;2.42;1.30;;;;;;;;;;5071073;28;20671;-58
2022/07/31 05:21:05;;;;;;;1.70;1.13;;;;;;;;;;5069917;28;20056;-59
2022/07/31 05:23:32;;;;;;;1.05;0.95;;;;;;;;;;5071982;28;20190;-58
2022/07/31 05:25:58;;;;;;;1.77;1.13;;;;;;;;;;5071005;28;20045;-58
2022/07/31 05:28:24;;;;;;;1.13;0.80;;;;;;;;;;5071666;28;20063;-58
2022/07/31 05:30:50;;;;;;;1.15;0.90;;;;;;;;;;5070765;28;20060;-58
2022/07/31 05:33:16;;;;;;;0.98;0.90;;;;;;;;;;5070468;28;20052;-58
2022/07/31 05:35:42;;;;;;;1.10;1.00;;;;;;;;;;5071636;28;20044;-58
2022/07/31 05:38:08;;;;;;;1.02;0.90;;;;;;;;;;5070727;28;20056;-58
2022/07/31 05:40:34;;;;;;;1.10;1.00;;;;;;;;;;5066747;28;20075;-58
2022/07/31 05:43:00;;;;;;;1.10;1.00;;;;;;;;;;5064421;28;20523;-58
2022/07/31 05:45:26;;;;;;;1.35;1.17;;;;;;;;;;5054670;28;20051;-58
2022/07/31 05:47:52;;;;;;;1.00;0.90;;;;;;;;;;5058685;28;20045;-58
2022/07/31 05:50:18;;;;;;;1.02;0.85;;;;;;;;;;5061771;28;20044;-58
2022/07/31 05:52:44;;;;;;;0.85;0.80;;;;;;;;;;5070116;28;20056;-58
2022/07/31 05:55:11;;;;;;;0.80;0.80;;;;;;;;;;5054048;28;20134;-58
2022/07/31 05:57:37;;;;;;;0.95;0.90;;;;;;;;;;5050745;28;20482;-58
2022/07/31 06:00:04;;;;;;;2.38;0.93;;;;;;;;;;5050451;28;20053;-58
2022/07/31 06:02:30;;;;;;;0.77;0.77;;;;;;;;;;5056954;28;20155;-58
2022/07/31 06:04:56;;;;;;;1.15;1.00;;;;;;;;;;5057451;28;20057;-58
2022/07/31 06:07:22;;;;;;;0.88;0.88;;;;;;;;;;5060445;28;20059;-58
2022/07/31 06:09:48;;;;;;;0.80;0.80;;;;;;;;;;5063500;28;20068;-58
2022/07/31 06:12:14;;;;;;;0.95;0.88;;;;;;;;;;5050012;28;20131;-58
2022/07/31 06:14:40;;;;;;;2.28;1.42;;;;;;;;;;5050837;28;20057;-58
2022/07/31 06:17:06;;;;;;;1.00;0.95;;;;;;;;;;5065410;28;20155;-58
2022/07/31 06:19:33;;;;;;;1.20;1.10;;;;;;;;;;5069863;28;20083;-58
2022/07/31 06:21:59;;;;;;;0.70;0.70;;;;;;;;;;5070377;28;20049;-58
2022/07/31 06:24:25;;;;;;;1.02;0.93;;;;;;;;;;5070782;28;20048;-58
2022/07/31 06:26:51;;;;;;;0.80;0.80;;;;;;;;;;5061903;28;20044;-58
2022/07/31 06:29:17;;;;;;;1.35;1.00;;;;;;;;;;5058726;28;20701;-59
2022/07/31 06:31:43;;;;;;;1.00;0.80;;;;;;;;;;5058904;28;20056;-58
2022/07/31 06:34:09;;;;;;;1.00;0.90;;;;;;;;;;5069872;28;20125;-58
2022/07/31 06:36:35;;;;;;;1.00;0.90;;;;;;;;;;5057752;28;20541;-58
2022/07/31 06:39:01;;;;;;;1.20;1.10;;;;;;;;;;5049979;28;20048;-58
2022/07/31 06:41:43;;;;;;;0.70;0.70;;;;;;;;;;5065423;28;20049;-58
2022/07/31 06:44:09;;;;;;;0.98;0.90;;;;;;;;;;5085746;28;20044;-58
2022/07/31 06:46:35;;;;;;;1.42;0.90;;;;;;;;;;5063198;28;20099;-58
2022/07/31 06:49:01;;;;;;;1.35;0.90;;;;;;;;;;5059792;28;20041;-57
2022/07/31 06:51:27;;;;;;;0.80;0.80;;;;;;;;;;5060713;28;20532;-58
2022/07/31 06:53:53;;;;;;;0.88;0.80;;;;;;;;;;5062532;28;20052;-59
2022/07/31 06:56:19;;;;;;;1.25;1.15;;;;;;;;;;5066998;28;20032;-58
2022/07/31 06:58:45;;;;;;;1.58;1.00;;;;;;;;;;5055489;28;20099;-59
2022/07/31 07:01:11;;;;;;;1.08;0.95;;;;;;;;;;5062950;28;20060;-58
2022/07/31 07:03:37;;;;;;;0.80;0.80;;;;;;;;;;5049201;28;20052;-58
2022/07/31 07:06:03;;;;;;;1.08;0.90;;;;;;;;;;5049818;28;20175;-58
2022/07/31 07:08:29;;;;;;;1.00;0.90;;;;;;;;;;5058488;28;20140;-59
2022/07/31 07:10:56;;;;;;;1.73;1.10;;;;;;;;;;5059956;28;20060;-58
2022/07/31 07:13:22;;;;;;;1.15;0.90;;;;;;;;;;5069453;28;20049;-59
2022/07/31 07:15:48;;;;;;;0.85;0.85;;;;;;;;;;5053282;28;20513;-58
2022/07/31 07:18:14;;;;;;;0.82;0.82;;;;;;;;;;5048532;28;20052;-58
2022/07/31 07:20:40;;;;;;;0.70;0.70;;;;;;;;;;5050018;28;20049;-58
2022/07/31 07:23:06;;;;;;;1.15;0.95;;;;;;;;;;5065559;28;20060;-57
2022/07/31 07:25:32;;;;;;;4.07;0.80;;;;;;;;;;5069633;28;20091;-58
2022/07/31 07:27:58;;;;;;;1.40;1.00;;;;;;;;;;5064031;28;20064;-58
2022/07/31 07:30:27;;;;;;;1.10;1.00;;;;;;;;;;5061266;28;20040;-58
2022/07/31 07:32:53;;;;;;;1.15;0.82;;;;;;;;;;5068030;28;20057;-59
2022/07/31 07:35:20;;;;;;;0.90;0.90;;;;;;;;;;5052976;28;20554;-58
2022/07/31 07:37:46;;;;;;;1.55;1.10;;;;;;;;;;5066675;28;20052;-58
2022/07/31 07:40:13;;;;;;;1.10;1.00;;;;;;;;;;5066812;28;20056;-58
2022/07/31 07:42:39;;;;;;;1.17;1.08;;;;;;;;;;5064367;28;20045;-59
2022/07/31 07:45:06;;;;;;;0.82;0.82;;;;;;;;;;5072530;28;20086;-58
2022/07/31 07:47:32;;;;;;;2.88;1.10;;;;;;;;;;5072026;28;20056;-58
2022/07/31 07:49:58;;;;;;;0.95;0.95;;;;;;;;;;5062361;28;20573;-59
2022/07/31 07:52:24;;;;;;;0.88;0.82;;;;;;;;;;5067764;28;20076;-58
2022/07/31 07:54:50;;;;;;;0.90;0.90;;;;;;;;;;5065269;28;20106;-58
2022/07/31 07:57:17;;;;;;;1.60;0.85;;;;;;;;;;5061227;28;20056;-58
2022/07/31 07:59:43;;;;;;;1.08;0.90;;;;;;;;;;5053471;28;20139;-58
2022/07/31 08:02:11;;;;;;;0.80;0.80;;;;;;;;;;5065428;28;20059;-58
2022/07/31 08:04:37;;;;;;;0.90;0.90;;;;;;;;;;5072168;28;20044;-58
2022/07/31 08:07:03;;;;;;;0.98;0.85;;;;;;;;;;5072810;28;20397;-59
2022/07/31 08:09:29;;;;;;;0.75;0.73;;;;;;;;;;5069822;28;20052;-58
2022/07/31 08:11:56;;;;;;;1.45;1.00;;;;;;;;;;5066764;28;20731;-58
2022/07/31 08:14:22;;;;;;;1.08;0.82;;;;;;;;;;5068801;28;20041;-58
2022/07/31 08:16:48;;;;;;;1.38;1.00;;;;;;;;;;5064704;28;20045;-58
2022/07/31 08:19:14;;;;;;;0.90;0.88;;;;;;;;;;5058175;28;20045;-58
2022/07/31 08:21:40;;;;;;;1.58;0.70;;;;;;;;;;5073027;28;20088;-58
2022/07/31 08:24:06;;;;;;;1.10;0.80;;;22.40;82.00;;;;;;5073108;28;20044;-67
2022/07/31 08:29:16;;;;;;;0.80;0.80;;;22.40;82.50;;;;;;5068017;28;20132;-58
2022/07/31 08:31:42;;;;;;;1.25;0.88;;;22.40;82.50;;;;;;5064480;28;20135;-58
2022/07/31 08:34:08;;;;;;;1.20;0.88;;;22.40;82.50;;;;;;5066586;28;20591;-57
2022/07/31 08:36:34;;;;;;;0.77;0.77;;;22.40;82.50;;;;;;5063404;28;20042;-58
2022/07/31 08:39:02;;;;;;;1.25;0.98;;;22.40;82.50;;;;;;5053646;28;20045;-58
2022/07/31 08:41:28;;;;;;;1.45;1.08;;;22.40;82.50;;;;;;5049443;28;20040;-58
2022/07/31 08:43:55;;;;;;;0.80;0.80;;;22.40;82.50;;;;;;5050202;28;20055;-58
2022/07/31 08:46:21;;;;;;;1.08;0.77;;;22.40;82.50;;;;;;5054310;28;20124;-58
2022/07/31 08:48:53;;;;;;;0.80;0.80;;;22.40;82.60;;;;;;5061360;28;20053;-58
2022/07/31 08:51:21;;;;;;;2.55;1.00;;;22.40;82.60;;;;;;5061908;28;20045;-58
2022/07/31 08:53:52;;;;;;;2.05;1.10;;;22.40;82.60;;;;;;5053097;28;20087;-58
2022/07/31 08:56:19;;;;;;;1.73;1.00;;;22.40;82.60;;;;;;5058731;28;20488;-58
2022/07/31 08:58:45;;;;;;;1.13;1.02;;;22.40;82.60;;;;;;5057072;28;20040;-58
2022/07/31 09:01:11;;;;;;;1.17;0.80;;;22.40;82.60;;;;;;5052115;28;20044;-57
2022/07/31 09:03:38;;;;;;;2.45;1.00;;;22.40;82.60;;;;;;5060905;28;20055;-58
2022/07/31 09:06:05;;;;;;;1.38;1.10;;;22.40;82.60;;;;;;5055394;28;20121;-58
2022/07/31 09:08:35;;;;;;;1.17;0.95;;;22.40;82.60;;;;;;5050804;28;20052;-61
2022/07/31 09:11:03;;;;;;;1.48;1.00;;;22.40;82.60;;;;;;5051749;28;20053;-59
2022/07/31 09:13:29;;;;;;;2.05;1.10;;;22.40;82.60;;;;;;5064735;28;20040;-60
2022/07/31 09:15:58;;;;;;;3.13;1.10;;;22.40;82.70;;;;;;5065120;28;20057;-59
2022/07/31 09:18:24;;;;;;;1.27;0.95;;;22.40;82.70;;;;;;5055512;28;20092;-59
2022/07/31 09:20:54;;;;;;;1.52;0.85;;;22.40;82.60;;;;;;5052483;28;20088;-59
2022/07/31 09:23:21;;;;;;;1.48;1.38;;;22.40;82.70;;;;;;5055533;28;20488;-59
2022/07/31 09:26:00;;;;;;;1.80;1.10;;;22.40;82.60;;;;;;5066729;28;20049;-60
2022/07/31 09:28:43;;;;;;;1.05;1.00;;;22.40;82.70;;;;;;5060029;28;20108;-60
2022/07/31 09:31:10;;;;;;;2.92;1.15;;;22.40;82.70;;;;;;5052346;28;20033;-58
2022/07/31 09:33:38;;;;;;;1.20;1.08;;;22.40;82.70;;;;;;5058645;28;20076;-58
2022/07/31 09:36:05;;;;;;;2.92;1.30;;;22.40;82.70;;;;;;5049959;28;20101;-57
2022/07/31 09:38:34;;;;;;;1.17;1.08;;;22.40;82.70;;;;;;5055962;28;20041;-58
2022/07/31 09:41:11;;;;;;;2.08;1.15;;;22.40;82.70;;;;;;5064338;28;20057;-58
2022/07/31 09:43:38;;;;;;;1.88;1.30;;;22.40;82.70;;;;;;5057180;28;20482;-58
2022/07/31 09:46:05;;;;;;;1.33;1.10;;;22.40;82.70;;;;;;5055280;28;20086;-58
2022/07/31 09:48:31;;;;;;;2.05;1.10;;;22.40;82.70;;;;;;5051818;28;20048;-58
2022/07/31 09:50:59;;;;;;;1.42;1.13;;;22.40;82.70;;;;;;5055884;28;20063;-57
2022/07/31 09:53:25;;;;;;;1.48;1.00;;;22.40;82.70;;;;;;5051478;28;20211;-58
2022/07/31 09:55:53;;;;;;;1.30;1.08;;;22.40;82.70;;;;;;5050673;28;20516;-58
2022/07/31 09:58:18;;;;;;;1.50;1.15;;;22.40;82.70;;;;;;5048879;28;20111;-57
2022/07/31 10:00:47;;;;;;;1.40;1.02;;;22.40;82.70;;;;;;5051154;28;20078;-58
2022/07/31 10:03:13;;;;;;;1.23;1.02;;;22.40;82.80;;;;;;5057218;28;20055;-58
2022/07/31 10:05:40;;;;;;;1.77;1.20;;;22.40;82.80;;;;;;5053406;28;20076;-58
2022/07/31 10:08:09;;;;;;;3.05;1.10;;;22.40;82.80;;;;;;5052695;28;20045;-58
2022/07/31 10:10:36;;;;;;;2.50;1.27;;;22.40;82.80;;;;;;5050126;28;20514;-58
2022/07/31 10:13:07;;;;;;;2.97;1.02;;;22.40;82.80;;;;;;5050789;28;20128;-60
2022/07/31 10:15:36;;;;;;;2.72;1.23;;;22.40;82.90;;;;;;5047848;28;20051;-59
2022/07/31 10:18:02;;;;;;;3.13;1.25;;;22.40;82.80;;;;;;5051648;28;20044;-58
2022/07/31 10:20:31;;;;;;;2.00;1.00;;;22.40;82.90;;;;;;5065376;28;20067;-58
2022/07/31 10:23:15;;;;;;;1.27;1.17;;;22.40;83.00;;;;;;5066965;28;20036;-58
2022/07/31 10:25:53;;;;;;;0.93;0.90;;;22.40;83.00;;;;;;5049687;28;20085;-58
2022/07/31 10:28:20;;;;;;;1.65;1.13;;;22.40;83.00;;;;;;5063448;28;20044;-58
2022/07/31 10:30:46;;;;;;;0.90;0.90;;;22.40;82.90;;;;;;5065260;28;20044;-58
2022/07/31 10:33:13;;;;;;;1.10;1.00;;;22.40;82.90;;;;;;5064444;28;20163;-58
2022/07/31 10:35:43;;;;;;;1.20;1.10;;;22.40;82.90;;;;;;5066580;28;20520;-58
2022/07/31 10:38:22;;;;;;;3.45;1.27;;;22.40;83.00;;;;;;5067681;28;20040;-58
2022/07/31 10:41:13;;;;;;;2.08;1.00;;;22.40;83.00;;;;;;5068862;28;20059;-58
2022/07/31 10:43:50;;;;;;;1.42;1.30;;;22.40;83.10;;;;;;5068714;28;20052;-58
2022/07/31 10:46:29;;;;;;;1.42;1.10;;;22.40;83.00;;;;;;5067785;28;20478;-58
2022/07/31 10:48:55;;;;;;;2.28;1.20;;;22.40;83.00;;;;;;5068209;28;20055;-58
2022/07/31 10:51:22;;;;;;;1.83;1.10;;;22.40;83.00;;;;;;5068406;28;20044;-58
2022/07/31 10:54:04;;;;;;;2.97;1.20;;;22.40;83.00;;;;;;5068537;28;20084;-58
2022/07/31 10:56:43;;;;;;;2.95;1.20;;;22.40;83.10;;;;;;5057939;28;20505;-59
2022/07/31 10:59:10;;;;;;;2.85;1.30;;;22.40;83.10;;;;;;5050632;28;20051;-58
2022/07/31 11:01:49;;;;;;;1.92;1.00;;;22.40;83.00;;;;;;5053474;28;20552;-58
2022/07/31 11:04:26;;;;;;;2.28;1.42;;;22.40;83.10;;;;;;5056113;28;20090;-58
2022/07/31 11:06:52;;;;;;;1.58;1.30;;;22.40;83.10;;;;;;5066472;28;20076;-58
2022/07/31 11:09:22;;;;;;;1.75;1.20;;;22.40;83.10;;;;;;5068508;28;20587;-58
2022/07/31 11:11:48;;;;;;;2.60;1.35;;;22.40;83.10;;;;;;5066812;28;20052;-58
2022/07/31 11:14:14;;;;;;;2.67;1.33;;;22.40;83.10;;;;;;5068926;28;20115;-58
2022/07/31 11:16:54;;;;;;;3.17;1.42;;;22.40;83.10;;;;;;5067047;28;20090;-58
2022/07/31 11:19:20;;;;;;;1.38;1.00;;;22.40;83.20;;;;;;5069080;28;20048;-58
2022/07/31 11:21:46;;;;;;;2.20;1.20;;;22.40;83.10;;;;;;5067816;28;20052;-58
2022/07/31 11:24:16;;;;;;;2.05;1.30;;;22.40;83.10;;;;;;5068486;28;20406;-58
2022/07/31 11:26:52;;;;;;;1.92;1.30;;;22.40;83.10;;;;;;5059335;28;20055;-58
2022/07/31 11:29:35;;;;;;;1.98;1.38;;;22.40;83.20;;;;;;5064935;28;20125;-58
2022/07/31 11:32:03;;;;;;;1.65;1.25;;;22.40;83.20;;;;;;5066989;28;20141;-58
2022/07/31 11:34:45;;;;;;;2.65;1.13;;;22.40;83.20;;;;;;5068405;28;20117;-57
2022/07/31 11:37:27;;;;;;;2.78;1.40;;;22.40;83.20;;;;;;5068595;28;20045;-58
2022/07/31 11:39:55;;;;;;;1.73;1.27;;;22.40;83.20;;;;;;5066559;28;20051;-58
2022/07/31 11:42:22;;;;;;;2.88;1.40;;;22.40;83.20;;;;;;5066848;28;20048;-58
2022/07/31 11:44:48;;;;;;;1.65;1.23;;;22.40;83.20;;;;;;5065534;28;20059;-58
2022/07/31 11:47:14;;;;;;;1.80;1.40;;;22.40;83.20;;;;;;5066184;28;20040;-58
2022/07/31 11:49:40;;;;;;;2.28;1.30;;;22.40;83.20;;;;;;5069263;28;20049;-59
2022/07/31 11:52:07;;;;;;;2.25;1.40;;;22.40;83.20;;;;;;5063588;28;20040;-58
2022/07/31 11:54:34;;;;;;;3.60;1.67;;;22.40;83.20;;;;;;5068633;28;20067;-57
2022/07/31 11:57:00;;;;;;;1.52;1.20;;;22.40;83.20;;;;;;5068618;28;20052;-58
2022/07/31 11:59:34;;;;;;;1.10;1.00;;;22.40;83.30;;;;;;5066312;28;20041;-58
2022/07/31 12:02:07;;;;;;;2.25;1.30;;;22.40;83.20;;;;;;5066592;28;20092;-58
2022/07/31 12:04:37;;;;;;;2.25;1.50;;;22.50;83.30;;;;;;5066943;28;20090;-57
2022/07/31 12:07:04;;;;;;;1.70;1.10;;;22.50;83.30;;;;;;5068476;28;20114;-59
2022/07/31 12:09:32;;;;;;;2.00;1.30;;;22.40;83.20;;;;;;5068884;28;20076;-58
2022/07/31 12:11:59;;;;;;;2.28;1.38;;;22.40;83.30;;;;;;5064267;28;20095;-58
2022/07/31 12:14:36;;;;;;;2.60;1.10;;;22.40;83.20;;;;;;5068899;28;20044;-58
2022/07/31 12:17:04;;;;;;;2.45;1.20;;;22.50;83.40;;;;;;5068803;28;20121;-58
2022/07/31 12:19:32;;;;;;;4.90;1.27;;;22.40;83.30;;;;;;5072697;28;20497;-58
2022/07/31 12:21:58;;;;;;;2.15;1.20;;;22.40;83.30;;;;;;5072218;28;20052;-58
2022/07/31 12:24:24;;;;;;;2.58;1.50;;;22.40;83.30;;;;;;5069951;28;20063;-58
2022/07/31 12:26:58;;;;;;;1.63;1.35;;;22.40;83.30;;;;;;5065316;28;20123;-58
2022/07/31 12:29:35;;;;;;;2.35;1.50;;;22.40;83.30;;;;;;5054508;28;20398;-58
2022/07/31 12:32:02;;;;;;;2.25;1.23;;;22.40;83.40;;;;;;5051213;28;20063;-58
2022/07/31 12:34:34;;;;;;;1.05;1.00;;;22.40;83.40;;;;;;5057474;28;20170;-58
2022/07/31 12:37:06;;;;;;;2.80;1.83;;;22.40;83.40;;;;;;5055240;28;20068;-59
2022/07/31 12:39:52;;;;;;;2.67;1.70;;;22.40;83.40;;;;;;5054115;28;20036;-58
2022/07/31 12:42:27;;;;;;;1.42;1.00;;;22.40;83.50;;;;;;5053744;28;20044;-58
2022/07/31 12:44:55;;;;;;;2.22;1.48;;;22.40;83.50;;;;;;5055597;28;20064;-58
2022/07/31 12:47:22;;;;;;;2.10;1.23;;;22.40;83.50;;;;;;5049069;28;20501;-58
2022/07/31 12:49:48;;;;;;;1.38;1.20;;;22.40;83.50;;;;;;5055394;28;20045;-58
2022/07/31 12:52:13;;;;;;;2.60;1.38;;;22.40;83.50;;;;;;5052295;28;20037;-58
2022/07/31 12:54:39;;;;;;;1.50;1.10;;;22.40;83.60;;;;;;5057191;28;20140;-57
2022/07/31 12:57:05;;;;;;;1.52;1.38;;;22.40;83.60;;;;;;5053087;28;20383;-58
2022/07/31 12:59:30;;;;;;;2.25;1.30;;;22.40;83.60;;;;;;5053601;28;20040;-58
2022/07/31 13:01:57;;;;;;;1.85;1.15;;;22.40;83.60;;;;;;5058246;28;20083;-58
2022/07/31 13:04:22;;;;;;;2.95;1.40;;;22.40;83.60;;;;;;5060639;28;20044;-58
2022/07/31 13:06:50;;;;;;;1.33;1.13;;;22.40;83.60;;;;;;5055921;28;20087;-58
2022/07/31 13:09:15;;;;;;;1.80;1.30;;;22.40;83.70;;;;;;5052430;28;20084;-58
2022/07/31 13:11:41;;;;;;;1.70;1.50;;;22.40;83.70;;;;;;5052066;28;20080;-58
2022/07/31 13:14:07;;;;;;;3.22;1.58;;;22.40;83.70;;;;;;5062183;28;20037;-58
2022/07/31 13:16:32;;;;;;;2.63;1.50;;;22.40;83.70;;;;;;5064863;28;20066;-58
2022/07/31 13:18:58;;;;;;;1.90;1.30;;;22.40;83.80;;;;;;5067434;28;20059;-58
2022/07/31 13:21:25;;;;;;;1.52;1.15;;;22.40;83.80;;;;;;5071635;28;20639;-58
2022/07/31 13:23:51;;;;;;;2.83;1.30;;;22.40;83.80;;;;;;5071918;28;20052;-58
2022/07/31 13:26:17;;;;;;;2.17;1.60;;;22.40;83.80;;;;;;5054577;28;20094;-58
2022/07/31 13:28:43;;;;;;;1.63;1.30;;;22.40;83.80;;;;;;5051400;28;20036;-57
2022/07/31 13:31:08;;;;;;;2.13;1.40;;;22.40;83.80;;;;;;5050879;28;20041;-58
2022/07/31 13:33:34;;;;;;;1.50;1.40;;;22.40;83.80;;;;;;5056991;28;20574;-58
2022/07/31 13:36:00;;;;;;;1.27;1.00;;;22.40;83.80;;;;;;5063976;28;20040;-58
2022/07/31 13:38:26;;;;;;;2.20;1.48;;;22.40;83.80;;;;;;5063848;28;20048;-58
2022/07/31 13:43:35;;;;;;;1.50;1.40;;;22.40;83.90;;;;;;5067665;28;20056;-58
2022/07/31 13:46:02;;;;;;;2.05;1.35;;;22.40;83.90;;;;;;5064229;28;20041;-58
2022/07/31 13:48:28;;;;;;;1.83;1.30;;;22.40;83.90;;;;;;5069772;28;20099;-58
2022/07/31 13:50:54;;;;;;;1.40;1.15;;;22.40;83.90;;;;;;5070493;28;20052;-58
2022/07/31 13:53:21;;;;;;;1.90;1.42;;;22.40;83.90;;;;;;5067372;28;20061;-59
2022/07/31 13:55:46;;;;;;;1.88;1.30;;;22.40;84.00;;;;;;5059205;28;20413;-58
2022/07/31 13:58:12;;;;;;;1.65;1.27;;;22.40;84.00;;;;;;5063016;28;20045;-58
2022/07/31 14:00:39;;;;;;;1.83;1.30;;;22.40;84.00;;;;;;5066905;28;20500;-58
2022/07/31 14:03:04;;;;;;;1.55;1.30;;;22.40;84.60;;;;;;5064871;28;20048;-58